Time;durP1;ratioP1;P1;durP2;ratioP2;P2;SDS_P1;SDS_P2;PMS_P1;PMS_P2;Temp;Humidity;BMP_temperature;BMP_pressure;BME280_temperature;BME280_humidity;BME280_pressure;Samples;Min_cycle;Max_cycle;Signal;HPM_P1;HPM_P2
2024/03/17 00:01:13;;;;;;;6.00;5.00;;;8.60;99.90;;;;;;4982841;28;20508;-73
2024/03/17 00:03:58;;;;;;;6.40;4.77;;;8.60;99.90;;;;;;4983083;28;20484;-73
2024/03/17 00:06:44;;;;;;;10.00;4.83;;;8.50;99.90;;;;;;4985957;28;20452;-73
2024/03/17 00:09:29;;;;;;;6.43;4.97;;;8.60;99.90;;;;;;4978366;28;20448;-73
2024/03/17 00:12:16;;;;;;;6.00;4.87;;;8.60;99.90;;;;;;4985751;28;20479;-73
2024/03/17 00:15:00;;;;;;;5.07;4.17;;;8.60;99.90;;;;;;4982500;28;20450;-73
2024/03/17 00:17:46;;;;;;;9.50;4.10;;;8.50;99.90;;;;;;4985177;28;20528;-72
2024/03/17 00:20:32;;;;;;;6.20;4.83;;;8.50;99.90;;;;;;4983838;28;20580;-73
2024/03/17 00:23:17;;;;;;;5.13;3.83;;;8.50;99.90;;;;;;4979888;28;20531;-73
2024/03/17 00:26:03;;;;;;;7.00;4.00;;;8.50;99.90;;;;;;4980690;28;20455;-73
2024/03/17 00:28:51;;;;;;;6.23;4.93;;;8.50;99.90;;;;;;4982105;28;20841;-73
2024/03/17 00:31:37;;;;;;;10.30;4.20;;;8.50;99.90;;;;;;4983539;28;20556;-73
2024/03/17 00:34:23;;;;;;;5.60;4.80;;;8.40;99.90;;;;;;4985536;28;20543;-73
2024/03/17 00:37:08;;;;;;;6.10;4.73;;;8.50;99.90;;;;;;4983950;28;20423;-72
2024/03/17 00:39:54;;;;;;;11.90;4.90;;;8.50;99.90;;;;;;4981142;28;20636;-72
2024/03/17 00:42:40;;;;;;;7.17;4.50;;;8.40;99.90;;;;;;4982168;28;20451;-72
2024/03/17 00:45:26;;;;;;;5.93;3.93;;;8.30;99.90;;;;;;4982694;28;20476;-73
2024/03/17 00:48:11;;;;;;;4.23;3.40;;;8.20;99.90;;;;;;4982073;28;21011;-73
2024/03/17 00:50:58;;;;;;;4.67;4.17;;;8.20;99.90;;;;;;4984599;28;20555;-73
2024/03/17 00:53:43;;;;;;;8.40;4.00;;;8.20;99.90;;;;;;4982955;28;21423;-73
2024/03/17 00:56:28;;;;;;;4.10;3.40;;;8.10;99.90;;;;;;4981558;28;20529;-73
2024/03/17 00:59:13;;;;;;;9.97;7.33;;;8.00;99.90;;;;;;4979115;28;20469;-73
2024/03/17 01:02:02;;;;;;;5.13;3.90;;;7.80;99.90;;;;;;4982649;28;20441;-73
2024/03/17 01:04:46;;;;;;;6.23;3.50;;;7.70;99.90;;;;;;4982506;28;20822;-73
2024/03/17 01:07:32;;;;;;;9.23;3.90;;;7.60;99.90;;;;;;4979871;28;20452;-73
2024/03/17 01:10:17;;;;;;;10.63;3.73;;;7.60;99.90;;;;;;4982466;28;20490;-73
2024/03/17 01:13:02;;;;;;;6.30;4.20;;;7.70;99.90;;;;;;4980009;28;20474;-73
2024/03/17 01:15:52;;;;;;;11.20;3.90;;;7.70;99.90;;;;;;4987608;28;21088;-73
2024/03/17 01:18:39;;;;;;;9.57;4.33;;;7.70;99.90;;;;;;4985607;28;20443;-73
2024/03/17 01:21:25;;;;;;;8.60;3.90;;;7.70;99.90;;;;;;4987656;28;20448;-73
2024/03/17 01:24:10;;;;;;;6.87;4.20;;;7.60;99.90;;;;;;4985472;28;20441;-73
2024/03/17 01:26:55;;;;;;;6.07;4.30;;;7.60;99.90;;;;;;4981563;28;20464;-73
2024/03/17 01:29:40;;;;;;;8.00;4.40;;;7.60;99.90;;;;;;4980272;28;20565;-73
2024/03/17 01:32:26;;;;;;;5.13;4.13;;;7.60;99.90;;;;;;4984854;28;20878;-73
2024/03/17 01:35:12;;;;;;;4.73;3.90;;;7.70;99.90;;;;;;4981384;28;20575;-73
2024/03/17 01:37:57;;;;;;;5.53;4.27;;;7.70;99.90;;;;;;4981766;28;20449;-73
2024/03/17 01:40:42;;;;;;;16.33;5.10;;;7.70;99.90;;;;;;4982845;28;20473;-73
2024/03/17 01:43:28;;;;;;;6.87;4.60;;;7.60;99.90;;;;;;4983117;28;20494;-73
2024/03/17 01:46:15;;;;;;;5.87;3.20;;;7.50;99.90;;;;;;4982759;28;20483;-73
2024/03/17 01:49:01;;;;;;;5.47;3.93;;;7.40;99.90;;;;;;4981328;28;20463;-73
2024/03/17 01:51:48;;;;;;;7.53;3.97;;;7.30;99.90;;;;;;4989513;28;21002;-73
2024/03/17 01:54:33;;;;;;;5.43;3.80;;;7.30;99.90;;;;;;4986255;28;20495;-73
2024/03/17 01:57:19;;;;;;;4.70;3.53;;;7.20;99.90;;;;;;4984861;28;20454;-73
2024/03/17 02:00:08;;;;;;;4.60;3.70;;;7.10;99.90;;;;;;4985765;28;20279;-73
2024/03/17 02:02:52;;;;;;;6.15;3.67;;;7.00;99.90;;;;;;4986897;28;21002;-73
2024/03/17 02:05:38;;;;;;;4.53;4.03;;;6.80;99.90;;;;;;4988235;28;20202;-73
2024/03/17 02:08:24;;;;;;;5.35;3.22;;;6.60;99.90;;;;;;4984764;28;20447;-73
2024/03/17 02:11:25;;;;;;;7.80;3.70;;;6.50;99.90;;;;;;4984612;28;20227;-73
2024/03/17 02:14:13;;;;;;;4.32;3.45;;;6.60;99.90;;;;;;4985778;28;20473;-73
2024/03/17 02:16:59;;;;;;;4.70;3.93;;;6.50;99.90;;;;;;4987186;28;20194;-73
2024/03/17 02:19:44;;;;;;;8.20;4.45;;;6.60;99.90;;;;;;4985321;28;20559;-73
2024/03/17 02:22:31;;;;;;;5.18;4.15;;;6.50;99.90;;;;;;4986401;28;20251;-73
2024/03/17 02:25:15;;;;;;;8.03;4.60;;;6.50;99.90;;;;;;4982766;28;20740;-73
2024/03/17 02:28:01;;;;;;;8.20;4.40;;;6.50;99.90;;;;;;4985897;28;20554;-73
2024/03/17 02:30:46;;;;;;;5.43;4.17;;;6.50;99.90;;;;;;4988222;28;20835;-73
2024/03/17 02:33:33;;;;;;;5.03;3.83;;;6.50;99.90;;;;;;4990760;28;20993;-73
2024/03/17 02:36:18;;;;;;;6.87;4.33;;;6.60;99.90;;;;;;4983860;28;20458;-73
2024/03/17 02:42:11;;;;;;;6.33;4.00;;;6.60;99.90;;;;;;4985443;28;20499;-73
2024/03/17 02:44:56;;;;;;;6.35;4.00;;;6.60;99.90;;;;;;4984196;28;20441;-73
2024/03/17 02:47:42;;;;;;;7.23;3.67;;;6.50;99.90;;;;;;4987561;28;20208;-73
2024/03/17 02:50:28;;;;;;;9.40;4.22;;;6.60;99.90;;;;;;4984110;28;21113;-73
2024/03/17 02:53:14;;;;;;;4.77;4.27;;;6.50;99.90;;;;;;4986234;28;20313;-73
2024/03/17 02:56:00;;;;;;;7.97;4.57;;;6.50;99.90;;;;;;4983642;28;20455;-73
2024/03/17 02:58:47;;;;;;;6.10;4.20;;;6.40;99.90;;;;;;4985851;28;20256;-73
2024/03/17 03:01:33;;;;;;;6.43;3.90;;;6.20;99.90;;;;;;4980633;28;20476;-73
2024/03/17 03:04:18;;;;;;;5.60;3.77;;;6.20;99.90;;;;;;4985453;28;21000;-73
2024/03/17 03:07:04;;;;;;;4.70;4.17;;;6.10;99.90;;;;;;4986896;28;20458;-73
2024/03/17 03:09:51;;;;;;;5.17;4.27;;;6.20;99.90;;;;;;4985281;28;20692;-73
2024/03/17 03:12:38;;;;;;;7.53;4.50;;;6.30;99.90;;;;;;4982580;28;20492;-73
2024/03/17 03:15:24;;;;;;;7.13;4.20;;;6.30;99.90;;;;;;4982503;28;20307;-73
2024/03/17 03:18:09;;;;;;;5.50;4.38;;;6.40;99.90;;;;;;4984436;28;20612;-73
2024/03/17 03:20:55;;;;;;;4.68;3.72;;;6.40;99.90;;;;;;4982831;28;20239;-73
2024/03/17 03:23:41;;;;;;;6.90;4.00;;;6.50;99.90;;;;;;4988501;28;20774;-73
2024/03/17 03:26:26;;;;;;;9.50;4.75;;;6.50;99.90;;;;;;4987523;28;20993;-73
2024/03/17 03:29:14;;;;;;;6.65;4.68;;;6.60;99.90;;;;;;4985171;28;20230;-73
2024/03/17 03:32:00;;;;;;;5.40;4.20;;;6.70;99.90;;;;;;4985528;28;20300;-73
2024/03/17 03:34:45;;;;;;;5.90;4.40;;;6.70;99.90;;;;;;4984529;28;20607;-73
2024/03/17 03:37:31;;;;;;;10.73;5.50;;;6.70;99.90;;;;;;4987199;28;20447;-73
2024/03/17 03:40:17;;;;;;;10.85;4.10;;;6.80;99.90;;;;;;4985068;28;20498;-73
2024/03/17 03:43:03;;;;;;;5.53;4.57;;;6.70;99.90;;;;;;4985862;28;20212;-73
2024/03/17 03:45:50;;;;;;;5.05;4.47;;;6.60;99.90;;;;;;4983519;28;20343;-73
2024/03/17 03:48:36;;;;;;;5.65;4.50;;;6.50;99.90;;;;;;4984615;28;20782;-73
2024/03/17 03:51:22;;;;;;;4.60;4.13;;;6.50;99.90;;;;;;4983886;28;20308;-74
2024/03/17 03:54:07;;;;;;;4.80;3.90;;;6.50;99.90;;;;;;4983596;28;20480;-71
2024/03/17 03:56:54;;;;;;;4.90;3.70;;;6.50;99.90;;;;;;4985229;28;20459;-71
2024/03/17 03:59:39;;;;;;;5.10;4.30;;;6.50;99.90;;;;;;4985931;28;20603;-71
2024/03/17 04:02:31;;;;;;;5.10;4.50;;;6.50;99.90;;;;;;4983710;28;21333;-74
2024/03/17 04:05:17;;;;;;;4.93;4.40;;;6.60;99.90;;;;;;4986161;28;20259;-74
2024/03/17 04:08:02;;;;;;;5.30;3.97;;;6.70;99.90;;;;;;4985335;28;20910;-72
2024/03/17 04:10:48;;;;;;;5.38;3.80;;;6.70;99.90;;;;;;4982667;28;20475;-74
2024/03/17 04:13:34;;;;;;;5.33;3.93;;;6.70;99.90;;;;;;4981254;28;20262;-74
2024/03/17 04:16:19;;;;;;;6.00;3.77;;;6.60;99.90;;;;;;4984208;28;20452;-74
2024/03/17 04:19:08;;;;;;;5.27;3.80;;;6.50;99.90;;;;;;4983041;28;20447;-73
2024/03/17 04:21:55;;;;;;;4.97;3.90;;;6.50;99.90;;;;;;4982933;28;20473;-74
2024/03/17 04:24:41;;;;;;;7.27;3.80;;;6.50;99.90;;;;;;4986719;28;20584;-71
2024/03/17 04:27:28;;;;;;;5.47;4.87;;;6.50;99.90;;;;;;4984519;28;20820;-73
2024/03/17 04:30:14;;;;;;;5.75;3.85;;;6.40;99.90;;;;;;4987670;28;20491;-73
2024/03/17 04:32:59;;;;;;;8.25;3.95;;;6.30;99.90;;;;;;4986469;28;20605;-74
2024/03/17 04:35:46;;;;;;;7.50;4.73;;;6.20;99.90;;;;;;4983155;28;20294;-74
2024/03/17 04:38:32;;;;;;;9.40;5.00;;;6.00;99.90;;;;;;4982270;28;20459;-73
2024/03/17 04:41:18;;;;;;;7.90;4.85;;;5.80;99.90;;;;;;4982042;28;20656;-73
2024/03/17 04:44:06;;;;;;;6.45;4.85;;;5.80;99.90;;;;;;4984019;28;20199;-72
2024/03/17 04:46:52;;;;;;;6.28;4.30;;;5.70;99.90;;;;;;4982847;28;20220;-72
2024/03/17 04:49:38;;;;;;;5.43;4.55;;;5.70;99.90;;;;;;4981990;28;20216;-74
2024/03/17 04:52:25;;;;;;;5.13;4.50;;;5.70;99.90;;;;;;4984680;28;20240;-74
2024/03/17 04:55:11;;;;;;;6.10;4.43;;;5.70;99.90;;;;;;4981803;28;20224;-73
2024/03/17 04:57:56;;;;;;;5.45;3.78;;;5.60;99.90;;;;;;4983935;28;20809;-73
2024/03/17 05:00:42;;;;;;;6.30;4.60;;;5.60;99.90;;;;;;4984342;28;20273;-74
2024/03/17 05:03:28;;;;;;;5.28;3.78;;;5.60;99.90;;;;;;4982766;28;20452;-74
2024/03/17 05:06:13;;;;;;;5.03;4.40;;;5.60;99.90;;;;;;4981929;28;20336;-73
2024/03/17 05:09:00;;;;;;;5.93;4.20;;;5.70;99.90;;;;;;4982405;28;20591;-74
2024/03/17 05:11:47;;;;;;;8.47;3.77;;;5.70;99.90;;;;;;4982877;28;20259;-73
2024/03/17 05:14:32;;;;;;;8.93;4.20;;;5.70;99.90;;;;;;4985787;28;20619;-72
2024/03/17 05:17:18;;;;;;;3.90;3.30;;;5.60;99.90;;;;;;4984155;28;20522;-74
2024/03/17 05:20:05;;;;;;;4.10;3.60;;;5.60;99.90;;;;;;4985376;28;20497;-73
2024/03/17 05:22:51;;;;;;;6.18;3.67;;;5.70;99.90;;;;;;4987878;28;20220;-72
2024/03/17 05:25:38;;;;;;;4.57;3.45;;;5.60;99.90;;;;;;4984545;28;20232;-74
2024/03/17 05:28:23;;;;;;;6.90;3.70;;;5.50;99.90;;;;;;4984458;28;20243;-73
2024/03/17 05:31:09;;;;;;;7.30;4.50;;;5.40;99.90;;;;;;4987254;28;20602;-73
2024/03/17 05:33:55;;;;;;;8.95;3.70;;;5.40;99.90;;;;;;4986871;28;20455;-73
2024/03/17 05:36:41;;;;;;;9.15;4.30;;;5.40;99.90;;;;;;4986479;28;20243;-73
2024/03/17 05:39:26;;;;;;;10.88;4.10;;;5.50;99.90;;;;;;4987826;28;20215;-74
2024/03/17 05:42:14;;;;;;;5.57;4.30;;;5.60;99.90;;;;;;4987331;28;20244;-71
2024/03/17 05:44:59;;;;;;;4.07;3.65;;;5.70;99.90;;;;;;4984012;28;20212;-73
2024/03/17 05:47:45;;;;;;;4.20;3.40;;;5.70;99.90;;;;;;4985146;28;20220;-73
2024/03/17 05:50:31;;;;;;;5.30;4.20;;;5.80;99.90;;;;;;4988005;28;21031;-74
2024/03/17 05:53:17;;;;;;;4.77;4.00;;;5.80;99.90;;;;;;4985462;28;20913;-74
2024/03/17 05:56:04;;;;;;;5.75;4.90;;;5.80;99.90;;;;;;4984402;28;20487;-74
2024/03/17 05:58:51;;;;;;;7.07;5.20;;;5.80;99.90;;;;;;4984470;28;20236;-73
2024/03/17 06:01:37;;;;;;;5.80;4.95;;;5.60;99.90;;;;;;4985576;28;20252;-74
2024/03/17 06:04:24;;;;;;;8.83;4.80;;;5.50;99.90;;;;;;4984761;28;20691;-74
2024/03/17 06:07:09;;;;;;;14.30;4.85;;;5.50;99.90;;;;;;4983831;28;20982;-74
2024/03/17 06:09:55;;;;;;;4.50;3.87;;;5.50;99.90;;;;;;4986248;28;20236;-74
2024/03/17 06:12:41;;;;;;;7.53;4.67;;;5.50;99.90;;;;;;4983426;28;20463;-74
2024/03/17 06:15:29;;;;;;;6.10;3.72;;;5.60;99.90;;;;;;4983773;28;20483;-72
2024/03/17 06:18:17;;;;;;;5.30;3.90;;;5.60;99.90;;;;;;4983670;28;21377;-73
2024/03/17 06:21:06;;;;;;;4.95;4.45;;;5.70;99.90;;;;;;4986824;28;20307;-74
2024/03/17 06:23:51;;;;;;;7.93;3.90;;;5.90;99.90;;;;;;4986783;28;20212;-74
2024/03/17 06:26:37;;;;;;;5.28;4.47;;;5.90;99.90;;;;;;4989121;28;20557;-73
2024/03/17 06:29:23;;;;;;;6.13;4.60;;;5.90;99.90;;;;;;4981038;28;20209;-74
2024/03/17 06:32:10;;;;;;;5.55;4.10;;;6.00;99.90;;;;;;4984744;28;20216;-71
2024/03/17 06:34:56;;;;;;;6.67;4.50;;;6.00;99.90;;;;;;4984524;28;20638;-72
2024/03/17 06:37:41;;;;;;;6.30;4.40;;;6.10;99.90;;;;;;4984834;28;20459;-74
2024/03/17 06:40:28;;;;;;;7.93;5.53;;;6.20;99.90;;;;;;4988879;28;20486;-73
2024/03/17 06:43:13;;;;;;;5.60;4.50;;;6.20;99.90;;;;;;4985830;28;20451;-73
2024/03/17 06:46:00;;;;;;;6.67;4.37;;;6.30;99.90;;;;;;4985226;28;20892;-73
2024/03/17 06:48:47;;;;;;;6.88;5.03;;;6.40;99.90;;;;;;4986847;28;20463;-73
2024/03/17 06:51:32;;;;;;;6.25;4.03;;;6.40;99.90;;;;;;4984854;28;20455;-71
2024/03/17 06:54:19;;;;;;;9.80;4.17;;;6.50;99.90;;;;;;4984621;28;20221;-73
2024/03/17 06:57:05;;;;;;;5.18;4.68;;;6.60;99.90;;;;;;4986225;28;20974;-74
2024/03/17 06:59:51;;;;;;;7.22;4.30;;;6.70;99.90;;;;;;4984059;28;20261;-73
2024/03/17 07:02:37;;;;;;;5.43;4.47;;;6.70;99.90;;;;;;4989546;28;20765;-73
2024/03/17 07:05:24;;;;;;;5.60;4.25;;;6.80;99.90;;;;;;4987479;28;20451;-74
2024/03/17 07:08:10;;;;;;;6.67;5.30;;;6.90;99.90;;;;;;4987948;28;20256;-74
2024/03/17 07:11:00;;;;;;;6.75;4.43;;;6.90;99.90;;;;;;4986358;28;20712;-74
2024/03/17 07:13:46;;;;;;;6.27;3.93;;;7.00;99.90;;;;;;4984837;28;20727;-72
2024/03/17 07:16:32;;;;;;;15.63;4.20;;;7.10;99.90;;;;;;4988584;28;20495;-73
2024/03/17 07:19:17;;;;;;;5.30;4.50;;;7.10;99.90;;;;;;4983877;28;20452;-74
2024/03/17 07:22:04;;;;;;;3.90;3.50;;;7.20;99.90;;;;;;4985530;28;21030;-73
2024/03/17 07:24:55;;;;;;;7.20;4.33;;;7.30;99.90;;;;;;4988782;28;20268;-72
2024/03/17 07:27:40;;;;;;;6.53;3.97;;;7.40;99.90;;;;;;4985297;28;20499;-74
2024/03/17 07:30:26;;;;;;;5.03;4.53;;;7.40;99.90;;;;;;4986435;28;20508;-75
2024/03/17 07:33:11;;;;;;;4.93;4.33;;;7.60;99.90;;;;;;4984193;28;20588;-74
2024/03/17 07:36:00;;;;;;;7.57;4.03;;;7.70;99.90;;;;;;4983528;28;21013;-74
2024/03/17 07:38:47;;;;;;;14.93;4.53;;;7.80;99.90;;;;;;4983665;28;20461;-71
2024/03/17 07:41:33;;;;;;;8.80;5.30;;;7.90;99.90;;;;;;4986763;28;20487;-74
2024/03/17 07:44:18;;;;;;;10.37;5.10;;;8.00;99.90;;;;;;4982399;28;20588;-74
2024/03/17 07:47:04;;;;;;;7.80;4.10;;;8.10;99.90;;;;;;4982060;28;20640;-73
2024/03/17 07:49:51;;;;;;;9.30;3.90;;;8.30;99.90;;;;;;4984150;28;20833;-73
2024/03/17 07:52:36;;;;;;;5.10;3.30;;;8.40;99.90;;;;;;4985665;28;20787;-74
2024/03/17 07:55:23;;;;;;;4.27;3.40;;;8.50;99.90;;;;;;4987327;28;20488;-75
2024/03/17 07:58:09;;;;;;;7.93;3.27;;;8.60;99.90;;;;;;4985628;28;20457;-74
2024/03/17 08:01:00;;;;;;;6.23;3.70;;;8.70;99.90;;;;;;4983784;28;20485;-72
2024/03/17 08:03:49;;;;;;;6.63;3.80;;;8.90;99.90;;;;;;4984286;28;21035;-71
2024/03/17 08:06:35;;;;;;;6.00;3.37;;;9.10;99.90;;;;;;4985152;28;20457;-75
2024/03/17 08:09:22;;;;;;;6.50;3.27;;;9.20;99.90;;;;;;4985288;28;20463;-73
2024/03/17 08:12:09;;;;;;;5.27;3.23;;;9.30;99.90;;;;;;4983076;28;20469;-74
2024/03/17 08:14:55;;;;;;;7.60;3.97;;;9.40;99.90;;;;;;4980392;28;20531;-70
2024/03/17 08:17:41;;;;;;;4.23;3.33;;;9.60;99.90;;;;;;4983116;28;21048;-71
2024/03/17 08:20:27;;;;;;;3.83;3.27;;;9.70;99.90;;;;;;4985027;28;21046;-73
2024/03/17 08:23:12;;;;;;;5.80;3.13;;;9.90;99.90;;;;;;4984320;28;20465;-72
2024/03/17 08:25:59;;;;;;;6.33;2.93;;;10.00;99.90;;;;;;4980513;28;20449;-73
2024/03/17 08:28:47;;;;;;;12.23;2.90;;;10.10;99.90;;;;;;4981878;28;20931;-73
2024/03/17 08:31:33;;;;;;;5.30;2.93;;;10.30;99.90;;;;;;4982378;28;20563;-74
2024/03/17 08:34:18;;;;;;;3.33;2.50;;;10.40;99.90;;;;;;4984976;28;20481;-73
2024/03/17 08:37:04;;;;;;;4.70;3.20;;;10.40;99.90;;;;;;4984105;28;20500;-74
2024/03/17 08:39:50;;;;;;;7.50;3.43;;;10.40;99.90;;;;;;4984027;28;20482;-74
2024/03/17 08:42:35;;;;;;;4.33;2.90;;;10.50;99.90;;;;;;4982944;28;20973;-74
2024/03/17 08:45:22;;;;;;;7.43;3.50;;;10.60;99.90;;;;;;4981526;28;20577;-74
2024/03/17 08:48:10;;;;;;;3.30;2.60;;;10.70;99.90;;;;;;4982187;28;21096;-74
2024/03/17 08:50:56;;;;;;;9.33;3.10;;;10.70;99.90;;;;;;4983910;28;20477;-74
2024/03/17 08:53:42;;;;;;;5.93;3.53;;;10.80;99.90;;;;;;4983484;28;20453;-73
2024/03/17 08:56:27;;;;;;;3.73;2.87;;;10.90;99.90;;;;;;4981439;28;20565;-74
2024/03/17 08:59:13;;;;;;;3.80;2.73;;;10.90;99.90;;;;;;4982482;28;20507;-75
2024/03/17 09:02:00;;;;;;;5.43;3.00;;;11.00;99.90;;;;;;4977252;28;20458;-73
2024/03/17 09:04:45;;;;;;;4.97;3.33;;;11.10;99.90;;;;;;4981479;28;20461;-74
2024/03/17 09:07:31;;;;;;;7.60;3.50;;;11.10;99.90;;;;;;4980478;28;20495;-74
2024/03/17 09:10:17;;;;;;;4.93;3.20;;;11.20;99.90;;;;;;4978770;28;20971;-73
2024/03/17 09:13:02;;;;;;;5.60;3.23;;;11.30;99.90;;;;;;4980199;28;20472;-74
2024/03/17 09:15:52;;;;;;;5.77;3.33;;;11.30;99.90;;;;;;4981639;28;20882;-75
2024/03/17 09:18:39;;;;;;;3.80;2.80;;;11.40;99.90;;;;;;4980863;28;20473;-75
2024/03/17 09:21:24;;;;;;;8.40;3.17;;;11.40;99.90;;;;;;4981025;28;21000;-75
2024/03/17 09:24:11;;;;;;;9.80;3.60;;;11.50;99.90;;;;;;4977146;28;20594;-74
2024/03/17 09:26:56;;;;;;;7.90;4.10;;;11.60;99.90;;;;;;4982691;28;20503;-74
2024/03/17 09:29:42;;;;;;;5.57;3.57;;;11.60;99.90;;;;;;4981717;28;20518;-75
2024/03/17 09:32:28;;;;;;;3.80;3.23;;;11.60;99.90;;;;;;4978197;28;20461;-71
2024/03/17 09:35:15;;;;;;;5.13;3.77;;;11.80;99.90;;;;;;4979609;28;20493;-73
2024/03/17 09:38:00;;;;;;;5.87;3.33;;;11.80;99.90;;;;;;4984553;28;20820;-74
2024/03/17 09:40:47;;;;;;;5.63;3.20;;;12.00;99.90;;;;;;4978884;28;20481;-74
2024/03/17 09:43:35;;;;;;;5.33;3.73;;;12.10;99.90;;;;;;4978790;28;21590;-74
2024/03/17 09:46:20;;;;;;;4.73;3.40;;;12.20;99.90;;;;;;4977614;28;20527;-74
2024/03/17 09:49:16;;;;;;;7.20;4.07;;;12.30;99.90;;;;;;4979373;28;20450;-74
2024/03/17 09:52:04;;;;;;;10.20;3.93;;;12.40;99.90;;;;;;4977995;28;21231;-73
2024/03/17 09:54:59;;;;;;;5.30;3.67;;;12.50;99.90;;;;;;4978504;28;20891;-73
2024/03/17 09:57:46;;;;;;;3.97;3.10;;;12.50;99.90;;;;;;4979498;28;20458;-73
2024/03/17 10:00:32;;;;;;;8.70;4.10;;;12.60;99.90;;;;;;4980425;28;20482;-73
2024/03/17 10:03:42;;;;;;;5.80;3.30;;;12.60;99.90;;;;;;4977513;28;20458;-73
2024/03/17 10:06:28;;;;;;;5.13;3.10;;;12.70;99.90;;;;;;4980150;28;20449;-73
2024/03/17 10:09:21;;;;;;;7.00;3.47;;;12.80;99.90;;;;;;4980315;28;20529;-73
2024/03/17 10:12:26;;;;;;;5.10;3.70;;;12.90;99.90;;;;;;4980504;28;20997;-73
2024/03/17 10:15:12;;;;;;;7.07;4.20;;;13.10;99.90;;;;;;4980905;28;20459;-73
2024/03/17 10:17:58;;;;;;;7.17;4.27;;;13.10;99.90;;;;;;4982992;28;20560;-73
2024/03/17 10:20:44;;;;;;;8.10;4.50;;;13.10;99.90;;;;;;4979700;28;20524;-73
2024/03/17 10:23:29;;;;;;;5.40;4.10;;;13.30;99.90;;;;;;4981255;28;20458;-73
2024/03/17 10:26:16;;;;;;;8.17;4.60;;;13.30;99.90;;;;;;4980953;28;20585;-73
2024/03/17 10:29:02;;;;;;;9.37;4.00;;;13.30;99.90;;;;;;4986232;28;20588;-73
2024/03/17 10:31:48;;;;;;;5.10;4.00;;;13.40;99.90;;;;;;4984112;28;20479;-73
2024/03/17 10:34:35;;;;;;;5.00;3.10;;;13.50;99.60;;;;;;4980598;28;20457;-73
2024/03/17 10:37:25;;;;;;;6.23;4.93;;;13.50;97.90;;;;;;4979975;28;20485;-73
2024/03/17 10:40:13;;;;;;;6.40;4.13;;;13.50;98.00;;;;;;4981746;28;20476;-73
2024/03/17 10:43:01;;;;;;;7.97;4.20;;;13.50;96.50;;;;;;4985103;28;20500;-73
2024/03/17 10:45:47;;;;;;;7.43;4.13;;;13.40;96.50;;;;;;4981194;28;20454;-73
2024/03/17 10:48:36;;;;;;;5.67;4.30;;;13.40;95.50;;;;;;4981172;28;20473;-73
2024/03/17 10:51:22;;;;;;;15.27;4.43;;;13.50;94.30;;;;;;4981886;28;20466;-73
2024/03/17 10:54:11;;;;;;;6.57;3.90;;;13.40;94.60;;;;;;4983554;28;20462;-73
2024/03/17 10:56:58;;;;;;;6.40;4.40;;;13.40;93.80;;;;;;4982758;28;20477;-73
2024/03/17 10:59:50;;;;;;;6.87;4.10;;;13.50;95.50;;;;;;4980429;28;21305;-73
2024/03/17 11:02:36;;;;;;;9.70;4.83;;;13.50;95.30;;;;;;4981012;28;20520;-73
2024/03/17 11:05:24;;;;;;;8.50;4.40;;;13.50;91.50;;;;;;4983274;28;20462;-73
2024/03/17 11:08:17;;;;;;;9.60;4.97;;;13.50;93.80;;;;;;4982019;28;20458;-73
2024/03/17 11:11:03;;;;;;;5.70;4.50;;;13.60;94.80;;;;;;4979415;28;20457;-73
2024/03/17 11:13:49;;;;;;;7.43;4.63;;;13.60;92.00;;;;;;4979359;28;20450;-73
2024/03/17 11:16:36;;;;;;;8.47;4.80;;;13.80;84.80;;;;;;4978612;28;20976;-73
2024/03/17 11:19:21;;;;;;;7.50;4.60;;;13.90;85.50;;;;;;4982996;28;20432;-73
2024/03/17 11:22:40;;;;;;;6.53;3.90;;;14.10;84.80;;;;;;4981517;28;20461;-73
2024/03/17 11:25:38;;;;;;;8.63;5.23;;;14.30;80.40;;;;;;4978087;28;20517;-73
2024/03/17 11:28:55;;;;;;;6.30;4.17;;;14.30;82.60;;;;;;4979180;28;20458;-73
2024/03/17 11:31:44;;;;;;;7.87;4.00;;;14.30;84.40;;;;;;4905573;29;20901;-73
2024/03/17 11:34:39;;;;;;;8.97;5.90;;;14.30;85.70;;;;;;4976501;28;20746;-73
2024/03/17 11:37:44;;;;;;;7.43;4.60;;;14.30;83.90;;;;;;4981172;28;20588;-73
2024/03/17 11:40:29;;;;;;;8.07;4.90;;;14.10;83.40;;;;;;4981436;28;20474;-73
2024/03/17 11:43:18;;;;;;;7.60;5.07;;;14.10;83.20;;;;;;4979182;28;20668;-73
2024/03/17 11:46:04;;;;;;;12.10;5.43;;;14.10;81.60;;;;;;4977830;28;20855;-74
2024/03/17 11:48:50;;;;;;;7.23;4.60;;;14.10;79.10;;;;;;4982345;28;20513;-73
2024/03/17 11:51:35;;;;;;;5.60;4.53;;;14.20;79.50;;;;;;4977192;28;20455;-73
2024/03/17 11:54:22;;;;;;;6.80;4.63;;;14.30;78.00;;;;;;4980220;28;20454;-73
2024/03/17 11:57:08;;;;;;;7.70;5.23;;;14.50;76.40;;;;;;4983675;28;20574;-73
2024/03/17 11:59:55;;;;;;;7.00;5.10;;;14.60;72.40;;;;;;4984962;28;20462;-73
2024/03/17 12:02:41;;;;;;;7.03;4.67;;;14.70;73.00;;;;;;4984810;28;20442;-73
2024/03/17 12:05:28;;;;;;;8.20;5.13;;;14.70;71.40;;;;;;4988083;28;20418;-74
2024/03/17 12:08:20;;;;;;;10.20;5.20;;;14.80;73.50;;;;;;4984144;28;20960;-74
2024/03/17 12:11:18;;;;;;;6.53;5.30;;;14.80;70.40;;;;;;4984185;28;20807;-73
2024/03/17 12:14:15;;;;;;;6.53;4.83;;;14.90;71.00;;;;;;4986788;28;20495;-73
2024/03/17 12:17:02;;;;;;;7.07;5.10;;;14.90;70.50;;;;;;4981456;28;20466;-73
2024/03/17 12:19:48;;;;;;;6.17;5.03;;;14.80;70.40;;;;;;4981151;28;20806;-73
2024/03/17 12:22:37;;;;;;;7.90;5.40;;;14.70;74.70;;;;;;4982362;28;20548;-73
2024/03/17 12:25:25;;;;;;;10.43;5.80;;;14.70;74.90;;;;;;4985372;28;20541;-73
2024/03/17 12:28:16;;;;;;;8.97;6.00;;;14.60;70.80;;;;;;4987043;28;20488;-73
2024/03/17 12:31:02;;;;;;;6.80;5.63;;;14.40;68.90;;;;;;4985624;28;20446;-73
2024/03/17 12:33:47;;;;;;;10.77;5.20;;;14.30;73.00;;;;;;4987487;28;20505;-73
2024/03/17 12:36:32;;;;;;;8.07;5.50;;;14.20;69.90;;;;;;4986685;28;20501;-72
2024/03/17 12:39:20;;;;;;;8.67;5.70;;;14.10;72.90;;;;;;4986476;28;20451;-72
2024/03/17 12:42:07;;;;;;;7.73;5.67;;;14.20;72.20;;;;;;4983439;28;20442;-72
2024/03/17 12:44:55;;;;;;;8.80;6.10;;;14.20;74.60;;;;;;4986189;28;20558;-73
2024/03/17 12:47:40;;;;;;;7.20;5.80;;;14.20;70.40;;;;;;4983102;28;20424;-73
2024/03/17 12:50:26;;;;;;;7.70;5.00;;;14.20;69.90;;;;;;4985291;28;20485;-73
2024/03/17 12:53:16;;;;;;;9.13;5.60;;;14.00;69.10;;;;;;4986586;28;20510;-73
2024/03/17 13:02:27;;;;;;;16.10;6.60;;;14.10;74.50;;;;;;4943386;29;20467;-73
2024/03/17 13:05:18;;;;;;;14.10;5.80;;;14.10;72.90;;;;;;4983644;28;20609;-73
2024/03/17 13:08:05;;;;;;;8.27;5.30;;;14.10;73.20;;;;;;4985584;28;20633;-73
2024/03/17 13:10:51;;;;;;;9.33;5.77;;;14.10;72.10;;;;;;4986236;28;20720;-73
2024/03/17 13:13:38;;;;;;;7.67;6.07;;;14.10;73.40;;;;;;4982488;28;21006;-73
2024/03/17 13:16:24;;;;;;;11.17;6.97;;;14.10;74.30;;;;;;4985465;28;20517;-73
2024/03/17 13:19:10;;;;;;;11.03;6.47;;;14.10;73.70;;;;;;4984234;28;20809;-73
2024/03/17 13:21:55;;;;;;;10.00;5.57;;;14.00;73.20;;;;;;4985739;28;20519;-73
2024/03/17 13:24:41;;;;;;;11.17;6.07;;;14.00;73.30;;;;;;4985648;28;20949;-73
2024/03/17 13:27:27;;;;;;;7.93;6.03;;;14.00;71.60;;;;;;4982027;28;20799;-74
2024/03/17 13:30:15;;;;;;;10.13;6.50;;;14.00;71.00;;;;;;4984093;28;20839;-74
2024/03/17 13:33:00;;;;;;;8.13;5.90;;;14.00;71.40;;;;;;4984233;28;20446;-75
2024/03/17 13:35:46;;;;;;;9.93;6.40;;;14.00;73.70;;;;;;4981543;28;20460;-75
2024/03/17 13:38:31;;;;;;;7.80;5.60;;;14.00;77.10;;;;;;4982367;28;20454;-74
2024/03/17 13:41:17;;;;;;;7.47;5.60;;;14.10;75.20;;;;;;4982978;28;20485;-74
2024/03/17 13:44:03;;;;;;;10.43;5.27;;;14.00;74.10;;;;;;4987204;28;20450;-73
2024/03/17 13:46:51;;;;;;;9.20;6.90;;;14.00;73.40;;;;;;4988771;28;20840;-73
2024/03/17 13:49:37;;;;;;;8.67;6.00;;;14.00;72.10;;;;;;4987638;28;20434;-73
2024/03/17 13:52:23;;;;;;;10.50;5.70;;;14.00;71.80;;;;;;4987395;28;20488;-73
2024/03/17 13:55:14;;;;;;;9.27;4.50;;;14.00;76.00;;;;;;4985496;28;21005;-73
2024/03/17 13:58:00;;;;;;;6.70;5.00;;;14.00;79.00;;;;;;4982836;28;20480;-73
2024/03/17 14:00:45;;;;;;;7.67;5.80;;;14.00;73.50;;;;;;4985784;28;21722;-74
2024/03/17 14:03:33;;;;;;;9.40;5.87;;;14.10;74.10;;;;;;4986658;28;20444;-74
2024/03/17 14:06:19;;;;;;;8.17;5.43;;;14.00;70.60;;;;;;4983613;28;20812;-73
2024/03/17 14:09:08;;;;;;;11.10;5.17;;;14.00;72.80;;;;;;4984168;28;20467;-73
2024/03/17 14:11:54;;;;;;;7.87;5.00;;;14.10;73.60;;;;;;4984615;28;21720;-73
2024/03/17 14:14:40;;;;;;;6.60;5.27;;;14.00;73.90;;;;;;4984618;28;20459;-73
2024/03/17 14:17:25;;;;;;;7.73;5.70;;;14.00;74.40;;;;;;4985087;28;20524;-72
2024/03/17 14:20:14;;;;;;;7.70;4.83;;;14.00;71.30;;;;;;4985427;28;20468;-74
2024/03/17 14:22:59;;;;;;;6.77;4.97;;;14.00;69.70;;;;;;4984894;28;20952;-73
2024/03/17 14:25:45;;;;;;;8.03;5.47;;;14.00;70.90;;;;;;4984673;28;20504;-74
2024/03/17 14:28:31;;;;;;;6.20;4.50;;;14.00;72.70;;;;;;4981509;28;20600;-72
2024/03/17 14:31:17;;;;;;;6.60;4.70;;;14.00;71.40;;;;;;4986195;28;20914;-73
2024/03/17 14:34:02;;;;;;;5.40;4.10;;;14.10;72.30;;;;;;4986223;28;20462;-73
2024/03/17 14:36:49;;;;;;;10.40;5.07;;;14.10;73.60;;;;;;4987369;28;20476;-73
2024/03/17 14:39:36;;;;;;;7.23;4.80;;;14.10;77.10;;;;;;4988686;28;20464;-73
2024/03/17 14:42:22;;;;;;;7.27;4.73;;;14.20;78.20;;;;;;4985684;28;20946;-73
2024/03/17 14:45:08;;;;;;;6.93;5.00;;;14.30;72.60;;;;;;4985872;28;20466;-73